sensor_id;sensor_type;location;lat;lon;timestamp;pressure;altitude;pressure_sealevel;temperature;humidity
38852;BME280;24605;50.092;9.182;2022-12-07T00:00:46;97968.31;;;1.46;100.00
38852;BME280;24605;50.092;9.182;2022-12-07T00:03:13;97968.44;;;1.45;100.00
38852;BME280;24605;50.092;9.182;2022-12-07T00:05:39;97952.25;;;1.54;100.00
38852;BME280;24605;50.092;9.182;2022-12-07T00:08:06;97958.47;;;1.76;100.00
38852;BME280;24605;50.092;9.182;2022-12-07T00:10:33;97954.06;;;1.65;100.00
38852;BME280;24605;50.092;9.182;2022-12-07T00:12:59;97949.91;;;1.51;100.00
38852;BME280;24605;50.092;9.182;2022-12-07T00:15:26;97954.06;;;1.65;100.00
38852;BME280;24605;50.092;9.182;2022-12-07T00:17:54;97949.75;;;1.77;100.00
38852;BME280;24605;50.092;9.182;2022-12-07T00:20:20;97949.13;;;1.62;100.00
38852;BME280;24605;50.092;9.182;2022-12-07T00:22:47;97951.94;;;1.59;100.00
38852;BME280;24605;50.092;9.182;2022-12-07T00:25:13;97949.81;;;1.52;100.00
38852;BME280;24605;50.092;9.182;2022-12-07T00:27:40;97939.06;;;1.81;100.00
38852;BME280;24605;50.092;9.182;2022-12-07T00:30:07;97936.31;;;2.07;100.00
38852;BME280;24605;50.092;9.182;2022-12-07T00:32:33;97939.84;;;2.06;100.00
38852;BME280;24605;50.092;9.182;2022-12-07T00:35:01;97931.22;;;1.83;100.00
38852;BME280;24605;50.092;9.182;2022-12-07T00:37:28;97936.38;;;1.83;100.00
38852;BME280;24605;50.092;9.182;2022-12-07T00:39:54;97929.06;;;1.77;100.00
38852;BME280;24605;50.092;9.182;2022-12-07T00:42:21;97925.72;;;1.87;100.00
38852;BME280;24605;50.092;9.182;2022-12-07T00:44:47;97915.88;;;2.04;100.00
38852;BME280;24605;50.092;9.182;2022-12-07T00:47:14;97919.59;;;2.00;100.00
38852;BME280;24605;50.092;9.182;2022-12-07T00:49:40;97922.44;;;2.08;100.00
38852;BME280;24605;50.092;9.182;2022-12-07T00:52:08;97914.22;;;2.03;100.00
38852;BME280;24605;50.092;9.182;2022-12-07T00:54:35;97919.19;;;1.70;100.00
38852;BME280;24605;50.092;9.182;2022-12-07T00:57:01;97925.25;;;1.94;100.00
38852;BME280;24605;50.092;9.182;2022-12-07T00:59:28;97921.69;;;1.83;100.00
38852;BME280;24605;50.092;9.182;2022-12-07T01:01:54;97889.28;;;1.79;100.00
38852;BME280;24605;50.092;9.182;2022-12-07T01:04:20;97909.25;;;1.88;100.00
38852;BME280;24605;50.092;9.182;2022-12-07T01:06:47;97890.59;;;1.85;100.00
38852;BME280;24605;50.092;9.182;2022-12-07T01:09:15;97898.06;;;1.77;100.00
38852;BME280;24605;50.092;9.182;2022-12-07T01:11:41;97910.63;;;1.81;100.00
38852;BME280;24605;50.092;9.182;2022-12-07T01:14:09;97913.59;;;1.88;100.00
38852;BME280;24605;50.092;9.182;2022-12-07T01:16:35;97912.53;;;1.91;100.00
38852;BME280;24605;50.092;9.182;2022-12-07T01:19:02;97909.59;;;1.84;100.00
38852;BME280;24605;50.092;9.182;2022-12-07T01:21:31;97874.38;;;1.47;100.00
38852;BME280;24605;50.092;9.182;2022-12-07T01:23:59;97905.34;;;1.71;100.00
38852;BME280;24605;50.092;9.182;2022-12-07T01:26:28;97896.03;;;1.58;100.00
38852;BME280;24605;50.092;9.182;2022-12-07T01:28:54;97877.56;;;1.51;100.00
38852;BME280;24605;50.092;9.182;2022-12-07T01:31:23;97902.06;;;1.81;100.00
38852;BME280;24605;50.092;9.182;2022-12-07T01:33:52;97913.34;;;1.80;100.00
38852;BME280;24605;50.092;9.182;2022-12-07T01:36:21;97910.28;;;1.86;100.00
38852;BME280;24605;50.092;9.182;2022-12-07T01:38:50;97919.00;;;1.96;100.00
38852;BME280;24605;50.092;9.182;2022-12-07T01:41:18;97904.66;;;1.81;100.00
38852;BME280;24605;50.092;9.182;2022-12-07T01:44:16;97914.31;;;1.90;100.00
38852;BME280;24605;50.092;9.182;2022-12-07T01:46:44;97909.00;;;1.92;100.00
38852;BME280;24605;50.092;9.182;2022-12-07T01:49:16;97909.81;;;1.81;100.00
38852;BME280;24605;50.092;9.182;2022-12-07T01:51:46;97902.88;;;1.70;100.00
38852;BME280;24605;50.092;9.182;2022-12-07T01:54:14;97871.50;;;1.63;100.00
38852;BME280;24605;50.092;9.182;2022-12-07T01:56:45;97895.47;;;1.77;100.00
38852;BME280;24605;50.092;9.182;2022-12-07T01:59:17;97904.69;;;1.92;100.00
38852;BME280;24605;50.092;9.182;2022-12-07T02:01:45;97902.19;;;1.91;100.00
38852;BME280;24605;50.092;9.182;2022-12-07T02:04:12;97905.38;;;1.94;100.00
38852;BME280;24605;50.092;9.182;2022-12-07T02:06:39;97883.41;;;1.88;100.00
38852;BME280;24605;50.092;9.182;2022-12-07T02:09:07;97895.66;;;1.98;100.00
38852;BME280;24605;50.092;9.182;2022-12-07T02:11:34;97901.97;;;1.94;100.00
38852;BME280;24605;50.092;9.182;2022-12-07T02:14:00;97895.88;;;1.95;100.00
38852;BME280;24605;50.092;9.182;2022-12-07T02:16:34;97896.22;;;1.90;100.00
38852;BME280;24605;50.092;9.182;2022-12-07T02:19:25;97895.00;;;1.71;100.00
38852;BME280;24605;50.092;9.182;2022-12-07T02:22:02;97893.50;;;1.92;100.00
38852;BME280;24605;50.092;9.182;2022-12-07T02:24:48;97871.78;;;1.83;100.00
38852;BME280;24605;50.092;9.182;2022-12-07T02:27:33;97885.41;;;1.96;100.00
38852;BME280;24605;50.092;9.182;2022-12-07T02:30:05;97884.81;;;1.93;100.00
38852;BME280;24605;50.092;9.182;2022-12-07T02:32:40;97867.91;;;1.88;100.00
38852;BME280;24605;50.092;9.182;2022-12-07T02:35:12;97882.00;;;1.96;100.00
38852;BME280;24605;50.092;9.182;2022-12-07T02:37:45;97872.22;;;1.77;100.00
38852;BME280;24605;50.092;9.182;2022-12-07T02:40:18;97876.09;;;1.82;100.00
38852;BME280;24605;50.092;9.182;2022-12-07T02:42:55;97871.66;;;1.96;100.00
38852;BME280;24605;50.092;9.182;2022-12-07T02:45:26;97871.09;;;1.92;100.00
38852;BME280;24605;50.092;9.182;2022-12-07T02:47:58;97869.66;;;1.88;100.00
38852;BME280;24605;50.092;9.182;2022-12-07T02:50:25;97873.66;;;2.03;100.00
38852;BME280;24605;50.092;9.182;2022-12-07T02:52:52;97867.31;;;1.85;100.00
38852;BME280;24605;50.092;9.182;2022-12-07T02:55:23;97861.78;;;1.78;100.00
38852;BME280;24605;50.092;9.182;2022-12-07T02:58:17;97867.91;;;1.88;100.00
38852;BME280;24605;50.092;9.182;2022-12-07T03:00:52;97862.59;;;1.67;100.00
38852;BME280;24605;50.092;9.182;2022-12-07T03:03:21;97869.19;;;1.83;100.00
38852;BME280;24605;50.092;9.182;2022-12-07T03:05:58;97857.91;;;1.84;100.00
38852;BME280;24605;50.092;9.182;2022-12-07T03:08:31;97867.75;;;1.79;100.00
38852;BME280;24605;50.092;9.182;2022-12-07T03:11:02;97829.44;;;1.61;100.00
38852;BME280;24605;50.092;9.182;2022-12-07T03:13:34;97860.13;;;1.77;100.00
38852;BME280;24605;50.092;9.182;2022-12-07T03:16:09;97853.91;;;1.80;100.00
38852;BME280;24605;50.092;9.182;2022-12-07T03:18:40;97860.59;;;1.82;100.00
38852;BME280;24605;50.092;9.182;2022-12-07T03:21:13;97856.25;;;1.71;100.00
38852;BME280;24605;50.092;9.182;2022-12-07T03:23:42;97840.63;;;1.62;100.00
38852;BME280;24605;50.092;9.182;2022-12-07T03:26:12;97851.28;;;1.68;100.00
38852;BME280;24605;50.092;9.182;2022-12-07T03:28:43;97855.66;;;1.68;100.00
38852;BME280;24605;50.092;9.182;2022-12-07T03:31:16;97854.75;;;1.80;100.00
38852;BME280;24605;50.092;9.182;2022-12-07T03:33:48;97858.59;;;1.75;100.00
38852;BME280;24605;50.092;9.182;2022-12-07T03:36:21;97842.50;;;1.71;100.00
38852;BME280;24605;50.092;9.182;2022-12-07T03:38:53;97852.25;;;1.79;100.00
38852;BME280;24605;50.092;9.182;2022-12-07T03:41:23;97841.19;;;1.77;100.00
38852;BME280;24605;50.092;9.182;2022-12-07T03:43:51;97821.50;;;1.76;100.00
38852;BME280;24605;50.092;9.182;2022-12-07T03:46:25;97849.81;;;1.88;100.00
38852;BME280;24605;50.092;9.182;2022-12-07T03:48:57;97857.75;;;1.74;100.00
38852;BME280;24605;50.092;9.182;2022-12-07T03:51:27;97861.53;;;1.70;100.00
38852;BME280;24605;50.092;9.182;2022-12-07T03:54:00;97858.25;;;1.79;100.00
38852;BME280;24605;50.092;9.182;2022-12-07T03:56:32;97863.53;;;1.78;100.00
38852;BME280;24605;50.092;9.182;2022-12-07T03:59:00;97855.31;;;1.95;100.00
38852;BME280;24605;50.092;9.182;2022-12-07T04:01:28;97847.09;;;1.79;100.00
38852;BME280;24605;50.092;9.182;2022-12-07T04:03:54;97847.34;;;1.76;100.00
38852;BME280;24605;50.092;9.182;2022-12-07T04:06:20;97841.81;;;1.80;100.00
38852;BME280;24605;50.092;9.182;2022-12-07T04:08:47;97843.78;;;1.77;100.00
38852;BME280;24605;50.092;9.182;2022-12-07T04:11:13;97846.88;;;2.04;100.00
38852;BME280;24605;50.092;9.182;2022-12-07T04:13:40;97843.69;;;1.90;100.00
38852;BME280;24605;50.092;9.182;2022-12-07T04:16:24;97842.28;;;1.97;100.00
38852;BME280;24605;50.092;9.182;2022-12-07T04:18:52;97837.47;;;1.92;100.00
38852;BME280;24605;50.092;9.182;2022-12-07T04:21:18;97829.00;;;1.90;100.00
38852;BME280;24605;50.092;9.182;2022-12-07T04:23:44;97838.53;;;2.01;100.00
38852;BME280;24605;50.092;9.182;2022-12-07T04:26:11;97831.59;;;2.01;100.00
38852;BME280;24605;50.092;9.182;2022-12-07T04:28:37;97837.69;;;1.89;100.00
38852;BME280;24605;50.092;9.182;2022-12-07T04:31:04;97837.13;;;1.85;100.00
38852;BME280;24605;50.092;9.182;2022-12-07T04:33:30;97833.22;;;1.80;100.00
38852;BME280;24605;50.092;9.182;2022-12-07T04:35:58;97839.34;;;1.90;100.00
38852;BME280;24605;50.092;9.182;2022-12-07T04:38:25;97831.72;;;1.88;100.00
38852;BME280;24605;50.092;9.182;2022-12-07T04:40:51;97833.94;;;1.82;100.00
38852;BME280;24605;50.092;9.182;2022-12-07T04:43:18;97837.69;;;1.89;100.00
38852;BME280;24605;50.092;9.182;2022-12-07T04:45:46;97838.63;;;1.88;100.00
38852;BME280;24605;50.092;9.182;2022-12-07T04:48:13;97840.50;;;1.86;100.00
38852;BME280;24605;50.092;9.182;2022-12-07T04:50:39;97831.94;;;1.74;100.00
38852;BME280;24605;50.092;9.182;2022-12-07T04:53:07;97838.63;;;1.88;100.00
38852;BME280;24605;50.092;9.182;2022-12-07T04:55:33;97839.69;;;1.85;100.00
38852;BME280;24605;50.092;9.182;2022-12-07T04:58:00;97841.78;;;1.69;100.00
38852;BME280;24605;50.092;9.182;2022-12-07T05:00:26;97843.53;;;1.68;100.00
38852;BME280;24605;50.092;9.182;2022-12-07T05:02:53;97840.41;;;1.87;100.00
38852;BME280;24605;50.092;9.182;2022-12-07T05:05:19;97828.44;;;1.98;100.00
38852;BME280;24605;50.092;9.182;2022-12-07T05:07:46;97813.25;;;1.70;100.00
38852;BME280;24605;50.092;9.182;2022-12-07T05:10:14;97836.53;;;1.82;100.00
38852;BME280;24605;50.092;9.182;2022-12-07T05:12:40;97843.09;;;1.97;100.00
38852;BME280;24605;50.092;9.182;2022-12-07T05:15:07;97837.72;;;2.00;100.00
38852;BME280;24605;50.092;9.182;2022-12-07T05:17:33;97838.78;;;1.98;100.00
38852;BME280;24605;50.092;9.182;2022-12-07T05:20:00;97837.47;;;1.92;100.00
38852;BME280;24605;50.092;9.182;2022-12-07T05:22:26;97794.69;;;1.54;100.00
38852;BME280;24605;50.092;9.182;2022-12-07T05:24:53;97838.75;;;1.86;100.00
38852;BME280;24605;50.092;9.182;2022-12-07T05:27:21;97833.94;;;2.04;100.00
38852;BME280;24605;50.092;9.182;2022-12-07T05:29:49;97828.09;;;2.02;100.00
38852;BME280;24605;50.092;9.182;2022-12-07T05:32:15;97828.53;;;1.96;100.00
38852;BME280;24605;50.092;9.182;2022-12-07T05:34:42;97826.66;;;1.98;100.00
38852;BME280;24605;50.092;9.182;2022-12-07T05:37:08;97838.66;;;1.99;100.00
38852;BME280;24605;50.092;9.182;2022-12-07T05:39:35;97833.34;;;1.90;100.00
38852;BME280;24605;50.092;9.182;2022-12-07T05:42:03;97836.53;;;1.82;100.00
38852;BME280;24605;50.092;9.182;2022-12-07T05:44:40;97839.34;;;1.90;100.00
38852;BME280;24605;50.092;9.182;2022-12-07T05:47:07;97834.41;;;1.98;100.00
38852;BME280;24605;50.092;9.182;2022-12-07T05:49:34;97831.38;;;1.93;100.00
38852;BME280;24605;50.092;9.182;2022-12-07T05:52:00;97834.06;;;1.92;100.00
38852;BME280;24605;50.092;9.182;2022-12-07T05:54:26;97836.75;;;1.90;100.00
38852;BME280;24605;50.092;9.182;2022-12-07T05:56:53;97837.47;;;2.03;100.00
38852;BME280;24605;50.092;9.182;2022-12-07T05:59:19;97832.06;;;2.07;100.00
38852;BME280;24605;50.092;9.182;2022-12-07T06:01:49;97835.13;;;2.00;100.00
38852;BME280;24605;50.092;9.182;2022-12-07T06:04:17;97834.88;;;2.03;100.00
38852;BME280;24605;50.092;9.182;2022-12-07T06:06:43;97837.72;;;2.00;100.00
38852;BME280;24605;50.092;9.182;2022-12-07T06:09:10;97843.13;;;2.09;100.00
38852;BME280;24605;50.092;9.182;2022-12-07T06:11:37;97837.94;;;1.97;100.00
38852;BME280;24605;50.092;9.182;2022-12-07T06:14:21;97829.81;;;2.02;100.00
38852;BME280;24605;50.092;9.182;2022-12-07T06:16:49;97833.69;;;1.96;100.00
38852;BME280;24605;50.092;9.182;2022-12-07T06:19:16;97828.78;;;1.93;100.00
38852;BME280;24605;50.092;9.182;2022-12-07T06:21:42;97825.72;;;1.99;100.00
38852;BME280;24605;50.092;9.182;2022-12-07T06:24:10;97827.94;;;1.93;100.00
38852;BME280;24605;50.092;9.182;2022-12-07T06:26:37;97829.47;;;1.95;100.00
38852;BME280;24605;50.092;9.182;2022-12-07T06:29:04;97836.44;;;2.06;100.00
38852;BME280;24605;50.092;9.182;2022-12-07T06:31:31;97833.47;;;2.11;100.00
38852;BME280;24605;50.092;9.182;2022-12-07T06:34:00;97838.88;;;2.08;100.00
38852;BME280;24605;50.092;9.182;2022-12-07T06:36:27;97825.16;;;2.07;100.00
38852;BME280;24605;50.092;9.182;2022-12-07T06:38:53;97830.19;;;2.09;100.00
38852;BME280;24605;50.092;9.182;2022-12-07T06:41:20;97834.28;;;2.11;100.00
38852;BME280;24605;50.092;9.182;2022-12-07T06:43:47;97832.28;;;2.03;100.00
38852;BME280;24605;50.092;9.182;2022-12-07T06:46:14;97836.88;;;1.88;100.00
38852;BME280;24605;50.092;9.182;2022-12-07T06:48:41;97833.00;;;1.83;100.00
38852;BME280;24605;50.092;9.182;2022-12-07T06:51:09;97834.31;;;1.88;100.00
38852;BME280;24605;50.092;9.182;2022-12-07T06:53:37;97827.13;;;1.92;100.00
38852;BME280;24605;50.092;9.182;2022-12-07T06:56:04;97834.88;;;1.92;100.00
38852;BME280;24605;50.092;9.182;2022-12-07T06:58:31;97829.69;;;2.03;100.00
38852;BME280;24605;50.092;9.182;2022-12-07T07:00:57;97827.03;;;2.05;100.00
38852;BME280;24605;50.092;9.182;2022-12-07T07:03:24;97830.53;;;2.04;100.00
38852;BME280;24605;50.092;9.182;2022-12-07T07:05:50;97838.75;;;2.09;100.00
38852;BME280;24605;50.092;9.182;2022-12-07T07:08:18;97818.66;;;1.90;100.00
38852;BME280;24605;50.092;9.182;2022-12-07T07:10:44;97839.13;;;1.93;100.00
38852;BME280;24605;50.092;9.182;2022-12-07T07:13:11;97838.88;;;1.85;100.00
38852;BME280;24605;50.092;9.182;2022-12-07T07:15:38;97835.13;;;1.89;100.00
38852;BME280;24605;50.092;9.182;2022-12-07T07:18:04;97848.16;;;1.99;100.00
38852;BME280;24605;50.092;9.182;2022-12-07T07:20:31;97843.22;;;1.96;100.00
38852;BME280;24605;50.092;9.182;2022-12-07T07:22:57;97812.41;;;1.81;100.00
38852;BME280;24605;50.092;9.182;2022-12-07T07:25:25;97830.16;;;1.86;100.00
38852;BME280;24605;50.092;9.182;2022-12-07T07:27:52;97851.78;;;1.96;100.00
38852;BME280;24605;50.092;9.182;2022-12-07T07:30:19;97844.66;;;1.88;100.00
38852;BME280;24605;50.092;9.182;2022-12-07T07:32:46;97847.69;;;1.94;100.00
38852;BME280;24605;50.092;9.182;2022-12-07T07:35:12;97853.66;;;1.94;100.00
38852;BME280;24605;50.092;9.182;2022-12-07T07:37:39;97852.28;;;2.01;100.00
38852;BME280;24605;50.092;9.182;2022-12-07T07:40:07;97849.94;;;1.98;100.00
38852;BME280;24605;50.092;9.182;2022-12-07T07:42:35;97804.91;;;1.67;100.00
38852;BME280;24605;50.092;9.182;2022-12-07T07:45:01;97854.75;;;2.03;100.00
38852;BME280;24605;50.092;9.182;2022-12-07T07:47:29;97839.00;;;1.95;100.00
38852;BME280;24605;50.092;9.182;2022-12-07T07:49:55;97855.47;;;2.05;100.00
38852;BME280;24605;50.092;9.182;2022-12-07T07:52:22;97855.09;;;2.10;100.00
38852;BME280;24605;50.092;9.182;2022-12-07T07:54:48;97855.78;;;2.12;100.00
38852;BME280;24605;50.092;9.182;2022-12-07T07:57:16;97860.50;;;2.07;100.00
38852;BME280;24605;50.092;9.182;2022-12-07T07:59:44;97853.34;;;2.10;100.00
38852;BME280;24605;50.092;9.182;2022-12-07T08:02:13;97859.22;;;2.24;100.00
38852;BME280;24605;50.092;9.182;2022-12-07T08:04:40;97830.53;;;2.15;100.00
38852;BME280;24605;50.092;9.182;2022-12-07T08:07:07;97852.75;;;2.18;100.00
38852;BME280;24605;50.092;9.182;2022-12-07T08:09:33;97844.06;;;2.19;100.00
38852;BME280;24605;50.092;9.182;2022-12-07T08:12:00;97825.47;;;2.14;100.00
38852;BME280;24605;50.092;9.182;2022-12-07T08:14:27;97825.47;;;2.14;100.00
38852;BME280;24605;50.092;9.182;2022-12-07T08:16:55;97826.41;;;2.13;100.00
38852;BME280;24605;50.092;9.182;2022-12-07T08:19:22;97844.88;;;2.19;100.00
38852;BME280;24605;50.092;9.182;2022-12-07T08:21:48;97857.66;;;2.21;100.00
38852;BME280;24605;50.092;9.182;2022-12-07T08:24:15;97857.09;;;2.17;100.00
38852;BME280;24605;50.092;9.182;2022-12-07T08:26:42;97855.69;;;2.25;100.00
38852;BME280;24605;50.092;9.182;2022-12-07T08:29:09;97850.63;;;2.23;100.00
38852;BME280;24605;50.092;9.182;2022-12-07T08:31:35;97852.72;;;2.29;100.00
38852;BME280;24605;50.092;9.182;2022-12-07T08:34:03;97860.63;;;2.28;100.00
38852;BME280;24605;50.092;9.182;2022-12-07T08:36:30;97854.38;;;2.30;100.00
38852;BME280;24605;50.092;9.182;2022-12-07T08:38:56;97854.84;;;2.35;100.00
38852;BME280;24605;50.092;9.182;2022-12-07T08:41:23;97851.56;;;2.33;100.00
38852;BME280;24605;50.092;9.182;2022-12-07T08:43:51;97850.13;;;2.29;100.00
38852;BME280;24605;50.092;9.182;2022-12-07T08:46:20;97835.22;;;2.22;100.00
38852;BME280;24605;50.092;9.182;2022-12-07T08:48:51;97858.50;;;2.33;100.00
38852;BME280;24605;50.092;9.182;2022-12-07T08:51:21;97860.63;;;2.39;100.00
38852;BME280;24605;50.092;9.182;2022-12-07T08:53:48;97871.91;;;2.38;100.00
38852;BME280;24605;50.092;9.182;2022-12-07T08:56:16;97873.56;;;2.39;100.00
38852;BME280;24605;50.092;9.182;2022-12-07T08:58:43;97876.00;;;2.41;100.00
38852;BME280;24605;50.092;9.182;2022-12-07T09:01:10;97828.31;;;2.11;100.00
38852;BME280;24605;50.092;9.182;2022-12-07T09:03:36;97868.38;;;2.39;100.00
38852;BME280;24605;50.092;9.182;2022-12-07T09:06:03;97867.31;;;2.30;100.00
38852;BME280;24605;50.092;9.182;2022-12-07T09:08:33;97859.22;;;2.24;100.00
38852;BME280;24605;50.092;9.182;2022-12-07T09:11:00;97859.00;;;2.15;100.00
38852;BME280;24605;50.092;9.182;2022-12-07T09:13:27;97879.66;;;2.27;100.00
38852;BME280;24605;50.092;9.182;2022-12-07T09:15:53;97790.47;;;1.76;100.00
38852;BME280;24605;50.092;9.182;2022-12-07T09:18:20;97878.94;;;2.36;100.00
38852;BME280;24605;50.092;9.182;2022-12-07T09:20:46;97859.69;;;2.29;100.00
38852;BME280;24605;50.092;9.182;2022-12-07T09:23:13;97875.56;;;2.35;100.00
38852;BME280;24605;50.092;9.182;2022-12-07T09:25:41;97870.75;;;2.42;100.00
38852;BME280;24605;50.092;9.182;2022-12-07T09:28:07;97881.66;;;2.46;100.00
38852;BME280;24605;50.092;9.182;2022-12-07T09:30:34;97879.03;;;2.57;100.00
38852;BME280;24605;50.092;9.182;2022-12-07T09:33:00;97874.94;;;2.66;100.00
38852;BME280;24605;50.092;9.182;2022-12-07T09:35:27;97873.84;;;2.80;100.00
38852;BME280;24605;50.092;9.182;2022-12-07T09:37:53;97865.97;;;2.70;100.00
38852;BME280;24605;50.092;9.182;2022-12-07T09:40:21;97872.03;;;2.92;100.00
38852;BME280;24605;50.092;9.182;2022-12-07T09:42:52;97871.09;;;2.93;100.00
38852;BME280;24605;50.092;9.182;2022-12-07T09:45:22;97873.56;;;2.94;100.00
38852;BME280;24605;50.092;9.182;2022-12-07T09:47:49;97847.03;;;2.70;100.00
38852;BME280;24605;50.092;9.182;2022-12-07T09:50:19;97847.63;;;2.62;100.00
38852;BME280;24605;50.092;9.182;2022-12-07T09:52:47;97868.16;;;2.86;100.00
38852;BME280;24605;50.092;9.182;2022-12-07T09:55:19;97863.19;;;2.94;100.00
38852;BME280;24605;50.092;9.182;2022-12-07T09:57:49;97869.88;;;3.08;100.00
38852;BME280;24605;50.092;9.182;2022-12-07T10:00:19;97866.78;;;3.36;100.00
38852;BME280;24605;50.092;9.182;2022-12-07T10:02:50;97860.00;;;3.35;100.00
38852;BME280;24605;50.092;9.182;2022-12-07T10:05:20;97843.94;;;3.41;100.00
38852;BME280;24605;50.092;9.182;2022-12-07T10:07:48;97849.31;;;3.49;100.00
38852;BME280;24605;50.092;9.182;2022-12-07T10:10:17;97858.72;;;3.50;100.00
38852;BME280;24605;50.092;9.182;2022-12-07T10:12:57;97847.84;;;3.56;100.00
38852;BME280;24605;50.092;9.182;2022-12-07T10:15:41;97861.44;;;3.49;100.00
38852;BME280;24605;50.092;9.182;2022-12-07T10:18:18;97849.13;;;3.62;100.00
38852;BME280;24605;50.092;9.182;2022-12-07T10:20:46;97854.53;;;3.80;100.00
38852;BME280;24605;50.092;9.182;2022-12-07T10:23:15;97839.63;;;3.72;100.00
38852;BME280;24605;50.092;9.182;2022-12-07T10:25:42;97853.16;;;3.76;100.00
38852;BME280;24605;50.092;9.182;2022-12-07T10:28:14;97848.59;;;3.68;100.00
38852;BME280;24605;50.092;9.182;2022-12-07T10:30:54;97841.91;;;3.66;100.00
38852;BME280;24605;50.092;9.182;2022-12-07T10:33:31;97848.31;;;3.92;100.00
38852;BME280;24605;50.092;9.182;2022-12-07T10:35:59;97847.59;;;3.81;100.00
38852;BME280;24605;50.092;9.182;2022-12-07T10:38:28;97841.34;;;3.93;100.00
38852;BME280;24605;50.092;9.182;2022-12-07T10:41:05;97851.16;;;3.89;100.00
38852;BME280;24605;50.092;9.182;2022-12-07T10:43:31;97847.41;;;3.72;100.00
38852;BME280;24605;50.092;9.182;2022-12-07T10:49:07;97843.28;;;3.49;100.00
38852;BME280;24605;50.092;9.182;2022-12-07T10:51:43;97834.94;;;3.45;100.00
38852;BME280;24605;50.092;9.182;2022-12-07T10:54:17;97837.53;;;3.45;100.00
38852;BME280;24605;50.092;9.182;2022-12-07T10:56:56;97829.78;;;3.45;100.00
38852;BME280;24605;50.092;9.182;2022-12-07T10:59:42;97833.44;;;3.42;100.00
38852;BME280;24605;50.092;9.182;2022-12-07T11:02:23;97812.97;;;3.39;100.00
38852;BME280;24605;50.092;9.182;2022-12-07T11:04:59;97826.16;;;3.57;100.00
38852;BME280;24605;50.092;9.182;2022-12-07T11:07:35;97826.03;;;3.59;100.00
38852;BME280;24605;50.092;9.182;2022-12-07T11:10:10;97828.81;;;3.46;100.00
38852;BME280;24605;50.092;9.182;2022-12-07T11:13:05;97826.22;;;3.46;100.00
38852;BME280;24605;50.092;9.182;2022-12-07T11:15:49;97822.44;;;3.50;100.00
38852;BME280;24605;50.092;9.182;2022-12-07T11:18:26;97819.13;;;3.69;100.00
38852;BME280;24605;50.092;9.182;2022-12-07T11:21:03;97812.28;;;3.89;100.00
38852;BME280;24605;50.092;9.182;2022-12-07T11:23:42;97784.03;;;3.86;100.00
38852;BME280;24605;50.092;9.182;2022-12-07T11:26:18;97804.59;;;4.19;100.00
38852;BME280;24605;50.092;9.182;2022-12-07T11:29:01;97799.84;;;4.34;100.00
38852;BME280;24605;50.092;9.182;2022-12-07T11:31:39;97801.19;;;4.18;100.00
38852;BME280;24605;50.092;9.182;2022-12-07T11:34:20;97798.81;;;4.05;100.00
38852;BME280;24605;50.092;9.182;2022-12-07T11:36:52;97793.00;;;4.13;100.00
38852;BME280;24605;50.092;9.182;2022-12-07T11:39:26;97784.25;;;3.73;100.00
38852;BME280;24605;50.092;9.182;2022-12-07T11:42:00;97786.63;;;3.86;100.00
38852;BME280;24605;50.092;9.182;2022-12-07T11:44:34;97788.88;;;3.70;100.00
38852;BME280;24605;50.092;9.182;2022-12-07T11:47:07;97782.31;;;3.75;100.00
38852;BME280;24605;50.092;9.182;2022-12-07T11:49:42;97784.09;;;3.75;100.00
38852;BME280;24605;50.092;9.182;2022-12-07T11:52:17;97785.56;;;3.68;100.00
38852;BME280;24605;50.092;9.182;2022-12-07T11:54:45;97783.72;;;3.80;100.00
38852;BME280;24605;50.092;9.182;2022-12-07T11:57:16;97782.69;;;3.92;100.00
38852;BME280;24605;50.092;9.182;2022-12-07T11:59:48;97774.78;;;4.03;100.00
38852;BME280;24605;50.092;9.182;2022-12-07T12:02:19;97771.38;;;4.03;100.00
38852;BME280;24605;50.092;9.182;2022-12-07T12:04:54;97768.88;;;3.91;100.00
38852;BME280;24605;50.092;9.182;2022-12-07T12:07:24;97754.09;;;3.82;100.00
38852;BME280;24605;50.092;9.182;2022-12-07T12:09:54;97767.78;;;3.94;100.00
38852;BME280;24605;50.092;9.182;2022-12-07T12:12:45;97768.34;;;3.98;100.00
38852;BME280;24605;50.092;9.182;2022-12-07T12:15:32;97772.50;;;4.10;100.00
38852;BME280;24605;50.092;9.182;2022-12-07T12:21:03;97758.19;;;4.16;100.00
38852;BME280;24605;50.092;9.182;2022-12-07T12:23:36;97741.13;;;4.23;100.00
38852;BME280;24605;50.092;9.182;2022-12-07T12:26:07;97748.44;;;4.08;100.00
38852;BME280;24605;50.092;9.182;2022-12-07T12:28:41;97749.84;;;4.12;100.00
38852;BME280;24605;50.092;9.182;2022-12-07T12:31:16;97747.56;;;3.88;100.00
38852;BME280;24605;50.092;9.182;2022-12-07T12:33:57;97746.56;;;4.10;100.00
38852;BME280;24605;50.092;9.182;2022-12-07T12:36:42;97750.16;;;4.29;100.00
38852;BME280;24605;50.092;9.182;2022-12-07T12:39:12;97731.06;;;4.59;97.57
38852;BME280;24605;50.092;9.182;2022-12-07T12:41:59;97731.84;;;4.99;94.70
38852;BME280;24605;50.092;9.182;2022-12-07T12:45:19;97729.63;;;5.24;92.70
38852;BME280;24605;50.092;9.182;2022-12-07T12:47:54;97718.72;;;5.00;90.66
38852;BME280;24605;50.092;9.182;2022-12-07T12:50:22;97729.66;;;5.04;91.61
38852;BME280;24605;50.092;9.182;2022-12-07T13:01:54;97717.66;;;4.54;92.80
38852;BME280;24605;50.092;9.182;2022-12-07T13:04:48;97727.63;;;4.49;96.83
38852;BME280;24605;50.092;9.182;2022-12-07T13:07:50;97728.97;;;4.43;95.94
38852;BME280;24605;50.092;9.182;2022-12-07T13:10:26;97721.19;;;4.43;96.48
38852;BME280;24605;50.092;9.182;2022-12-07T13:12:56;97720.38;;;4.43;95.55
38852;BME280;24605;50.092;9.182;2022-12-07T13:15:35;97707.41;;;4.52;97.05
38852;BME280;24605;50.092;9.182;2022-12-07T13:18:14;97721.19;;;4.43;97.46
38852;BME280;24605;50.092;9.182;2022-12-07T13:20:54;97717.50;;;4.36;98.99
38852;BME280;24605;50.092;9.182;2022-12-07T13:23:25;97713.81;;;4.29;100.00
38852;BME280;24605;50.092;9.182;2022-12-07T13:26:01;97716.81;;;4.24;100.00
38852;BME280;24605;50.092;9.182;2022-12-07T13:28:35;97715.16;;;4.23;100.00
38852;BME280;24605;50.092;9.182;2022-12-07T13:31:19;97712.97;;;4.18;100.00